Time;durP1;ratioP1;P1;durP2;ratioP2;P2;SDS_P1;SDS_P2;PMS_P1;PMS_P2;Temp;Humidity;BMP_temperature;BMP_pressure;BME280_temperature;BME280_humidity;BME280_pressure;Samples;Min_cycle;Max_cycle;Signal;HPM_P1;HPM_P2
2023/08/21 00:01:35;;;;;;;9.70;4.03;;;;;;;;;;5077258;28;20415;-63
2023/08/21 00:04:02;;;;;;;7.32;3.80;;;;;;;;;;5074003;28;20415;-63
2023/08/21 00:06:29;;;;;;;6.45;3.80;;;;;;;;;;5079160;28;20869;-63
2023/08/21 00:08:56;;;;;;;7.53;3.60;;;;;;;;;;5069334;28;20403;-63
2023/08/21 00:11:23;;;;;;;6.53;3.60;;;;;;;;;;5076458;28;20486;-63
2023/08/21 00:13:50;;;;;;;7.10;3.70;;;;;;;;;;5073834;28;20885;-62
2023/08/21 00:16:18;;;;;;;6.72;3.78;;;;;;;;;;5074507;28;20415;-62
2023/08/21 00:18:46;;;;;;;10.90;3.70;;;;;;;;;;5068224;28;20521;-62
2023/08/21 00:21:13;;;;;;;7.45;4.40;;;;;;;;;;5080960;28;20421;-62
2023/08/21 00:23:40;;;;;;;8.27;4.47;;;;;;;;;;5073883;28;20485;-62
2023/08/21 00:26:07;;;;;;;7.90;4.45;;;;;;;;;;5074537;28;20469;-62
2023/08/21 00:28:35;;;;;;;9.68;4.88;;;;;;;;;;5074456;28;20408;-62
2023/08/21 00:31:02;;;;;;;8.55;4.72;;;;;;;;;;5073907;28;20416;-62
2023/08/21 00:33:29;;;;;;;7.53;3.92;;;;;;;;;;5071936;28;20481;-62
2023/08/21 00:35:58;;;;;;;10.10;5.65;;;;;;;;;;5071424;28;20777;-62
2023/08/21 00:38:25;;;;;;;8.07;5.05;;;;;;;;;;5073732;28;20525;-62
2023/08/21 00:40:52;;;;;;;6.13;4.25;;;;;;;;;;5074375;28;20418;-62
2023/08/21 00:43:20;;;;;;;9.18;4.57;;;;;;;;;;5077377;28;20415;-62
2023/08/21 00:45:48;;;;;;;8.48;3.95;;;;;;;;;;5074688;28;20454;-60
2023/08/21 00:48:15;;;;;;;8.60;4.30;;;;;;;;;;5077416;28;20915;-62
2023/08/21 00:50:43;;;;;;;9.20;4.10;;;;;;;;;;5079142;28;20741;-62
2023/08/21 00:53:11;;;;;;;7.80;3.72;;;;;;;;;;5073562;28;20414;-62
2023/08/21 00:55:40;;;;;;;8.93;4.00;;;;;;;;;;5067843;28;20411;-62
2023/08/21 00:58:07;;;;;;;9.25;3.97;;;;;;;;;;5077854;28;20418;-62
2023/08/21 01:00:35;;;;;;;9.00;3.80;;;;;;;;;;5074994;28;20419;-62
2023/08/21 01:03:03;;;;;;;9.68;3.88;;;;;;;;;;5079104;28;20426;-62
2023/08/21 01:05:30;;;;;;;8.17;3.90;;;;;;;;;;5076444;28;20551;-62
2023/08/21 01:07:59;;;;;;;7.63;3.88;;;;;;;;;;5080962;28;20499;-62
2023/08/21 01:10:33;;;;;;;7.32;4.07;;;;;;;;;;5076784;28;20409;-61
2023/08/21 01:13:03;;;;;;;7.47;4.03;;;;;;;;;;5079119;28;20415;-62
2023/08/21 01:15:30;;;;;;;7.80;4.03;;;;;;;;;;5076366;28;20402;-62
2023/08/21 01:17:57;;;;;;;9.70;4.22;;;;;;;;;;5081556;28;20450;-62
2023/08/21 01:20:25;;;;;;;10.13;4.60;;;;;;;;;;5081526;28;20489;-61
2023/08/21 01:22:52;;;;;;;11.25;4.00;;;;;;;;;;5081501;28;20411;-61
2023/08/21 01:25:20;;;;;;;7.40;4.30;;;;;;;;;;5078476;28;20406;-62
2023/08/21 01:27:49;;;;;;;8.85;3.97;;;;;;;;;;5079788;28;20469;-62
2023/08/21 01:30:16;;;;;;;10.82;4.25;;;;;;;;;;5077730;28;20757;-62
2023/08/21 01:32:47;;;;;;;7.13;4.25;;;;;;;;;;5079564;28;20485;-62
2023/08/21 01:35:14;;;;;;;8.63;3.97;;;;;;;;;;5077876;28;20406;-62
2023/08/21 01:37:41;;;;;;;7.78;3.92;;;;;;;;;;5079816;28;20477;-62
2023/08/21 01:40:09;;;;;;;9.13;3.95;;;;;;;;;;5078032;28;20457;-62
2023/08/21 01:42:37;;;;;;;8.32;4.00;;;;;;;;;;5079658;28;20943;-62
2023/08/21 01:45:05;;;;;;;7.73;3.83;;;;;;;;;;5077635;28;20564;-67
2023/08/21 01:47:32;;;;;;;7.60;3.70;;;;;;;;;;5080621;28;20413;-63
2023/08/21 01:49:59;;;;;;;6.67;3.43;;;;;;;;;;5081265;28;20410;-64
2023/08/21 01:52:25;;;;;;;6.63;3.25;;;;;;;;;;5080026;28;20814;-64
2023/08/21 01:54:52;;;;;;;6.97;3.42;;;;;;;;;;5076932;28;20411;-64
2023/08/21 01:57:20;;;;;;;6.93;3.00;;;;;;;;;;5079460;28;20424;-64
2023/08/21 01:59:48;;;;;;;6.63;3.00;;;;;;;;;;5076595;28;20473;-64
2023/08/21 02:02:15;;;;;;;5.45;2.97;;;;;;;;;;5074585;28;20932;-64
2023/08/21 02:04:42;;;;;;;7.20;3.10;;;;;;;;;;5076764;28;20870;-64
2023/08/21 02:07:09;;;;;;;8.38;2.83;;;;;;;;;;5080170;28;20420;-66
2023/08/21 02:09:36;;;;;;;9.57;3.05;;;;;;;;;;5077191;28;20415;-63
2023/08/21 02:12:04;;;;;;;7.80;2.63;;;;;;;;;;5079797;28;20412;-66
2023/08/21 02:14:31;;;;;;;5.38;2.90;;;;;;;;;;5078075;28;20398;-64
2023/08/21 02:16:59;;;;;;;8.27;3.22;;;;;;;;;;5078779;28;20445;-64
2023/08/21 02:19:26;;;;;;;7.28;3.28;;;;;;;;;;5076154;28;20429;-60
2023/08/21 02:21:53;;;;;;;7.20;3.00;;;;;;;;;;5077406;28;20451;-61
2023/08/21 02:24:20;;;;;;;9.07;2.95;;;;;;;;;;5074683;28;20414;-61
2023/08/21 02:26:47;;;;;;;6.50;3.10;;;;;;;;;;5073203;28;20879;-60
2023/08/21 02:29:14;;;;;;;8.37;3.20;;;;;;;;;;5072730;28;20401;-61
2023/08/21 02:31:41;;;;;;;5.13;3.00;;;;;;;;;;5063052;28;20455;-61
2023/08/21 02:34:09;;;;;;;7.05;3.60;;;;;;;;;;5077609;28;20781;-61
2023/08/21 02:36:36;;;;;;;6.40;3.10;;;;;;;;;;5073429;28;20413;-61
2023/08/21 02:39:04;;;;;;;6.43;3.28;;;;;;;;;;5076415;28;20435;-61
2023/08/21 02:41:31;;;;;;;5.50;3.22;;;;;;;;;;5077464;28;20406;-61
2023/08/21 02:43:58;;;;;;;5.57;3.42;;;;;;;;;;5070742;28;20420;-61
2023/08/21 02:46:25;;;;;;;6.85;3.33;;;;;;;;;;5069981;28;20953;-62
2023/08/21 02:48:52;;;;;;;8.15;3.15;;;;;;;;;;5066709;28;20557;-59
2023/08/21 02:51:20;;;;;;;8.52;3.85;;;;;;;;;;5078900;28;20405;-61
2023/08/21 02:53:47;;;;;;;5.95;3.58;;;;;;;;;;5077686;28;20464;-60
2023/08/21 02:56:14;;;;;;;6.93;3.55;;;;;;;;;;5077252;28;20468;-61
2023/08/21 02:58:41;;;;;;;9.57;3.88;;;;;;;;;;5076699;28;20420;-60
2023/08/21 03:01:08;;;;;;;7.28;3.92;;;;;;;;;;5078859;28;20416;-61
2023/08/21 03:03:35;;;;;;;8.43;4.30;;;;;;;;;;5078140;28;20526;-60
2023/08/21 03:06:02;;;;;;;7.10;3.90;;;;;;;;;;5076807;28;20469;-60
2023/08/21 03:08:31;;;;;;;7.65;4.05;;;;;;;;;;5078977;28;20406;-61
2023/08/21 03:10:58;;;;;;;7.53;4.35;;;;;;;;;;5073139;28;20759;-61
2023/08/21 03:13:25;;;;;;;7.72;4.10;;;;;;;;;;5079639;28;20483;-60
2023/08/21 03:15:52;;;;;;;8.80;4.30;;;;;;;;;;5072883;28;20804;-61
2023/08/21 03:18:19;;;;;;;7.75;3.47;;;;;;;;;;5073398;28;20418;-61
2023/08/21 03:20:46;;;;;;;7.82;3.75;;;;;;;;;;5077679;28;20415;-61
2023/08/21 03:23:14;;;;;;;8.57;3.72;;;;;;;;;;5075200;28;20418;-61
2023/08/21 03:25:42;;;;;;;8.75;3.90;;;;;;;;;;5072094;28;20479;-61
2023/08/21 03:28:09;;;;;;;9.10;4.30;;;;;;;;;;5079065;28;20741;-61
2023/08/21 03:30:36;;;;;;;6.85;4.05;;;;;;;;;;5068180;28;20465;-62
2023/08/21 03:33:03;;;;;;;7.05;4.10;;;;;;;;;;5080360;28;20410;-61
2023/08/21 03:35:30;;;;;;;6.93;3.95;;;;;;;;;;5074648;28;20911;-61
2023/08/21 03:37:57;;;;;;;8.23;3.72;;;;;;;;;;5077170;28;20477;-60
2023/08/21 03:40:24;;;;;;;7.17;3.93;;;;;;;;;;5075165;28;20418;-61
2023/08/21 03:42:52;;;;;;;10.57;4.15;;;;;;;;;;5073872;28;20415;-61
2023/08/21 03:45:19;;;;;;;6.77;3.87;;;;;;;;;;5075672;28;20902;-62
2023/08/21 03:47:46;;;;;;;10.13;4.43;;;;;;;;;;5077340;28;20445;-61
2023/08/21 03:50:13;;;;;;;11.57;5.10;;;;;;;;;;5078752;28;20406;-61
2023/08/21 03:52:40;;;;;;;12.05;5.65;;;;;;;;;;5070131;28;20421;-62
2023/08/21 03:55:08;;;;;;;12.80;5.10;;;;;;;;;;5068305;28;20407;-62
2023/08/21 03:57:35;;;;;;;12.77;5.03;;;;;;;;;;5073886;28;20830;-61
2023/08/21 04:00:04;;;;;;;9.80;4.68;;;;;;;;;;5071093;28;20412;-60
2023/08/21 04:02:31;;;;;;;12.30;5.65;;;;;;;;;;5076042;28;20776;-60
2023/08/21 04:04:58;;;;;;;9.18;4.90;;;;;;;;;;5071389;28;20464;-61
2023/08/21 04:07:25;;;;;;;9.82;4.45;;;;;;;;;;5072635;28;20411;-61
2023/08/21 04:09:52;;;;;;;9.45;5.18;;;;;;;;;;5074297;28;20418;-61
2023/08/21 04:12:19;;;;;;;12.60;7.68;;;;;;;;;;5077968;28;20420;-61
2023/08/21 04:14:46;;;;;;;9.60;6.28;;;;;;;;;;5074867;28;20411;-61
2023/08/21 04:17:14;;;;;;;9.85;5.68;;;;;;;;;;5077945;28;20412;-62
2023/08/21 04:19:43;;;;;;;10.48;5.78;;;;;;;;;;5076454;28;20430;-62
2023/08/21 04:22:10;;;;;;;8.77;5.57;;;;;;;;;;5070080;28;20473;-61
2023/08/21 04:24:37;;;;;;;8.52;5.25;;;;;;;;;;5071200;28;20421;-62
2023/08/21 04:27:04;;;;;;;8.27;4.90;;;;;;;;;;5074432;28;20408;-62
2023/08/21 04:29:31;;;;;;;9.60;5.20;;;;;;;;;;5073904;28;20489;-61
2023/08/21 04:31:58;;;;;;;11.93;4.70;;;;;;;;;;5064636;28;20951;-62
2023/08/21 04:34:27;;;;;;;10.65;5.25;;;;;;;;;;5075974;28;20766;-63
2023/08/21 04:36:54;;;;;;;9.35;5.00;;;;;;;;;;5075107;28;20419;-62
2023/08/21 04:39:20;;;;;;;9.15;4.78;;;;;;;;;;5078823;28;20423;-63
2023/08/21 04:41:47;;;;;;;8.25;4.90;;;;;;;;;;5079276;28;20461;-63
2023/08/21 04:44:14;;;;;;;8.73;5.65;;;;;;;;;;5082299;28;20775;-62
2023/08/21 04:46:41;;;;;;;9.40;5.25;;;;;;;;;;5075440;28;20440;-63
2023/08/21 04:49:09;;;;;;;10.05;4.68;;;;;;;;;;5079479;28;20415;-62
2023/08/21 04:51:37;;;;;;;7.05;4.32;;;;;;;;;;5082854;28;20495;-63
2023/08/21 04:54:04;;;;;;;9.38;5.18;;;;;;;;;;5078885;28;20951;-62
2023/08/21 04:56:31;;;;;;;11.20;4.55;;;;;;;;;;5070808;28;20411;-63
2023/08/21 04:58:58;;;;;;;8.77;4.57;;;;;;;;;;5077927;28;20427;-63
2023/08/21 05:01:26;;;;;;;6.97;4.68;;;;;;;;;;5069506;28;20834;-63
2023/08/21 05:03:54;;;;;;;8.50;4.60;;;;;;;;;;5078927;28;20464;-62
2023/08/21 05:06:21;;;;;;;8.15;4.70;;;;;;;;;;5072847;28;20412;-63
2023/08/21 05:08:49;;;;;;;11.50;4.90;;;;;;;;;;5077602;28;20820;-63
2023/08/21 05:11:16;;;;;;;10.07;4.80;;;;;;;;;;5073824;28;20435;-63
2023/08/21 05:13:43;;;;;;;9.48;5.05;;;;;;;;;;5078367;28;20465;-63
2023/08/21 05:16:10;;;;;;;10.10;4.80;;;;;;;;;;5074065;28;20484;-63
2023/08/21 05:18:37;;;;;;;10.32;5.05;;;;;;;;;;5075796;28;20911;-63
2023/08/21 05:21:04;;;;;;;9.65;5.13;;;;;;;;;;5070424;28;20427;-63
2023/08/21 05:23:31;;;;;;;10.32;5.32;;;;;;;;;;5077922;28;20409;-62
2023/08/21 05:25:59;;;;;;;10.15;5.30;;;;;;;;;;5078691;28;20800;-62
2023/08/21 05:28:26;;;;;;;9.07;5.00;;;;;;;;;;5077883;28;20455;-63
2023/08/21 05:30:53;;;;;;;11.70;6.50;;;;;;;;;;5075813;28;20469;-62
2023/08/21 05:33:20;;;;;;;10.30;5.07;;;;;;;;;;5082697;28;20915;-62
2023/08/21 05:35:47;;;;;;;9.98;5.38;;;;;;;;;;5076034;28;20423;-62
2023/08/21 05:38:14;;;;;;;9.13;5.07;;;;;;;;;;5082917;28;20834;-62
2023/08/21 05:40:42;;;;;;;11.40;5.10;;;;;;;;;;5076501;28;20423;-62
2023/08/21 05:43:10;;;;;;;10.02;5.10;;;;;;;;;;5079407;28;20412;-62
2023/08/21 05:45:37;;;;;;;7.82;4.63;;;;;;;;;;5077168;28;20406;-62
2023/08/21 05:48:04;;;;;;;6.85;4.30;;;;;;;;;;5079451;28;20461;-62
2023/08/21 05:50:31;;;;;;;10.52;4.63;;;;;;;;;;5077615;28;20852;-62
2023/08/21 05:53:01;;;;;;;8.23;4.45;;;;;;;;;;5079975;28;20493;-62
2023/08/21 05:55:28;;;;;;;10.23;4.32;;;;;;;;;;5078969;28;20893;-62
2023/08/21 05:57:55;;;;;;;10.98;4.72;;;;;;;;;;5084461;28;20482;-62
2023/08/21 06:00:23;;;;;;;11.55;4.60;;;;;;;;;;5080894;28;20430;-62
2023/08/21 06:02:50;;;;;;;9.13;4.80;;;;;;;;;;5077511;28;20419;-62
2023/08/21 06:05:17;;;;;;;10.23;4.30;;;;;;;;;;5078719;28;20415;-62
2023/08/21 06:07:44;;;;;;;10.23;4.05;;;;;;;;;;5076928;28;20411;-62
2023/08/21 06:10:12;;;;;;;9.27;4.57;;;;;;;;;;5078225;28;20457;-63
2023/08/21 06:12:39;;;;;;;7.45;3.58;;;;;;;;;;5072231;28;20426;-63
2023/08/21 06:15:08;;;;;;;12.30;4.10;;;;;;;;;;5070821;28;20408;-62
2023/08/21 06:17:36;;;;;;;10.02;3.80;;;;;;;;;;5075705;28;20474;-63
2023/08/21 06:20:05;;;;;;;5.65;3.05;;;;;;;;;;5074315;28;20423;-63
2023/08/21 06:22:32;;;;;;;6.28;3.15;;;;;;;;;;5078733;28;20467;-63
2023/08/21 06:24:59;;;;;;;8.13;3.57;;;;;;;;;;5077385;28;20538;-63
2023/08/21 06:27:26;;;;;;;9.40;3.47;;;;;;;;;;5079992;28;20461;-63
2023/08/21 06:29:53;;;;;;;7.57;2.83;;;;;;;;;;5077055;28;20782;-68
2023/08/21 06:32:20;;;;;;;7.90;2.85;;;;;;;;;;5073552;28;20964;-67
2023/08/21 06:34:48;;;;;;;9.00;2.80;;;;;;;;;;5077267;28;20407;-65
2023/08/21 06:37:15;;;;;;;7.68;3.47;;;;;;;;;;5073430;28;20477;-65
2023/08/21 06:39:42;;;;;;;7.68;3.00;;;;;;;;;;5077478;28;20909;-65
2023/08/21 06:42:10;;;;;;;7.75;3.05;;;;;;;;;;5076760;28;20415;-65
2023/08/21 06:44:37;;;;;;;5.90;2.97;;;;;;;;;;5078704;28;20477;-65
2023/08/21 06:47:04;;;;;;;7.65;2.88;;;;;;;;;;5076547;28;20416;-65
2023/08/21 06:49:31;;;;;;;5.88;2.80;;;;;;;;;;5079769;28;20549;-64
2023/08/21 06:52:00;;;;;;;6.35;2.88;;;;;;;;;;5076735;28;20825;-65
2023/08/21 06:54:27;;;;;;;9.63;3.50;;;;;;;;;;5077938;28;20446;-64
2023/08/21 06:56:54;;;;;;;5.45;2.97;;;;;;;;;;5080852;28;20489;-65
2023/08/21 06:59:21;;;;;;;4.37;2.60;;;;;;;;;;5079219;28;20835;-64
2023/08/21 07:01:48;;;;;;;7.18;3.10;;;;;;;;;;5072901;28;20416;-65
2023/08/21 07:04:15;;;;;;;6.47;2.63;;;;;;;;;;5079822;28;20406;-65
2023/08/21 07:06:42;;;;;;;6.10;3.05;;;;;;;;;;5074059;28;20939;-65
2023/08/21 07:09:10;;;;;;;7.90;3.00;;;;;;;;;;5071484;28;20420;-66
2023/08/21 07:11:37;;;;;;;7.65;2.88;;;;;;;;;;5065178;28;20417;-67
2023/08/21 07:14:04;;;;;;;6.43;3.23;;;;;;;;;;5077831;28;20507;-67
2023/08/21 07:16:31;;;;;;;6.05;2.78;;;;;;;;;;5068721;28;20414;-68
2023/08/21 07:18:58;;;;;;;8.88;3.10;;;;;;;;;;5077307;28;20428;-68
2023/08/21 07:21:25;;;;;;;6.68;2.92;;;;;;;;;;5071077;28;20407;-68
2023/08/21 07:23:52;;;;;;;4.53;2.72;;;;;;;;;;5067148;28;20422;-65
2023/08/21 07:26:21;;;;;;;6.70;2.95;;;;;;;;;;5078444;28;20406;-65
2023/08/21 07:28:48;;;;;;;7.63;3.60;;;;;;;;;;5077264;28;20556;-64
2023/08/21 07:31:15;;;;;;;7.10;3.53;;;;;;;;;;5081494;28;20622;-67
2023/08/21 07:33:42;;;;;;;8.25;3.78;;;;;;;;;;5077391;28;20415;-63
2023/08/21 07:36:09;;;;;;;6.83;3.60;;;;;;;;;;5073222;28;20895;-63
2023/08/21 07:38:36;;;;;;;8.18;3.92;;;;;;;;;;5077747;28;20415;-63
2023/08/21 07:41:04;;;;;;;8.27;3.67;;;;;;;;;;5073507;28;20434;-63
2023/08/21 07:43:33;;;;;;;9.82;3.50;;;;;;;;;;5079842;28;20556;-63
2023/08/21 07:46:03;;;;;;;7.10;3.58;;;;;;;;;;5068752;28;20912;-64
2023/08/21 07:48:30;;;;;;;11.47;3.67;;;;;;;;;;5075586;28;20410;-65
2023/08/21 07:50:57;;;;;;;9.60;3.78;;;;;;;;;;5071645;28;20905;-63
2023/08/21 07:53:24;;;;;;;11.68;3.75;;;;;;;;;;5065542;28;20408;-64
2023/08/21 07:55:52;;;;;;;10.55;3.88;;;;;;;;;;5075597;28;20755;-63
2023/08/21 07:58:19;;;;;;;7.45;3.45;;;;;;;;;;5069588;28;20415;-66
2023/08/21 08:00:48;;;;;;;8.82;3.60;;;;;;;;;;5070426;28;20489;-65
2023/08/21 08:03:15;;;;;;;8.95;3.53;;;;;;;;;;5074094;28;20497;-65
2023/08/21 08:05:43;;;;;;;6.00;3.08;;;;;;;;;;5073901;28;20417;-65
2023/08/21 08:08:10;;;;;;;9.95;3.33;;;;;;;;;;5073858;28;20423;-64
2023/08/21 08:10:39;;;;;;;10.68;3.80;;;;;;;;;;5067726;28;20411;-65
2023/08/21 08:13:06;;;;;;;8.40;3.22;;;;;;;;;;5074335;28;20412;-65
2023/08/21 08:15:34;;;;;;;7.70;3.45;;;;;;;;;;5077148;28;20414;-65
2023/08/21 08:18:03;;;;;;;8.10;3.05;;;;;;;;;;5076214;28;20411;-65
2023/08/21 08:20:30;;;;;;;8.50;3.38;;;;;;;;;;5077729;28;20418;-65
2023/08/21 08:22:57;;;;;;;9.15;3.30;;;;;;;;;;5074885;28;20469;-64
2023/08/21 08:25:24;;;;;;;11.82;3.65;;;;;;;;;;5077929;28;20826;-64
2023/08/21 08:27:53;;;;;;;7.57;3.40;;;;;;;;;;5079631;28;20442;-63
2023/08/21 08:30:20;;;;;;;7.90;3.47;;;;;;;;;;5073115;28;20463;-63
2023/08/21 08:32:47;;;;;;;7.95;3.50;;;;;;;;;;5060763;28;20413;-63
2023/08/21 08:35:15;;;;;;;13.40;3.97;;;;;;;;;;5061141;28;20427;-67
2023/08/21 08:37:42;;;;;;;10.63;4.53;;;;;;;;;;5069505;28;20553;-65
2023/08/21 08:40:10;;;;;;;9.27;4.25;;;;;;;;;;5073086;28;20431;-64
2023/08/21 08:42:37;;;;;;;10.53;4.10;;;;;;;;;;5071796;28;20816;-64
2023/08/21 08:45:05;;;;;;;7.38;3.95;;;;;;;;;;5076004;28;20445;-65
2023/08/21 08:47:33;;;;;;;9.00;3.80;;;;;;;;;;5075204;28;20419;-65
2023/08/21 08:50:00;;;;;;;9.77;3.78;;;;;;;;;;5073328;28;20786;-65
2023/08/21 08:52:29;;;;;;;9.35;3.80;;;;;;;;;;5072628;28;20475;-64
2023/08/21 08:54:57;;;;;;;10.05;3.97;;;;;;;;;;5074353;28;20885;-65
2023/08/21 08:57:24;;;;;;;7.43;3.80;;;;;;;;;;5079828;28;20431;-64
2023/08/21 08:59:51;;;;;;;7.10;3.78;;;;;;;;;;5076441;28;20423;-66
2023/08/21 09:02:18;;;;;;;9.33;4.03;;;;;;;;;;5066209;28;20441;-69
2023/08/21 09:04:45;;;;;;;8.35;3.70;;;;;;;;;;5069302;28;20480;-66
2023/08/21 09:07:13;;;;;;;6.53;3.15;;;;;;;;;;5069314;28;20404;-66
2023/08/21 09:09:42;;;;;;;8.73;3.50;;;;;;;;;;5076497;28;20407;-67
2023/08/21 09:12:12;;;;;;;7.90;3.42;;;;;;;;;;5067519;28;20408;-67
2023/08/21 09:14:40;;;;;;;7.00;3.45;;;;;;;;;;5072986;28;20450;-66
2023/08/21 09:17:07;;;;;;;6.75;3.22;;;;;;;;;;5075260;28;20481;-65
2023/08/21 09:19:34;;;;;;;6.63;3.50;;;;;;;;;;5070753;28;20465;-68
2023/08/21 09:22:09;;;;;;;8.38;3.50;;;;;;;;;;5069253;28;20419;-65
2023/08/21 09:24:36;;;;;;;6.20;3.33;;;;;;;;;;5074213;28;20456;-65
2023/08/21 09:27:05;;;;;;;8.23;3.42;;;;;;;;;;5084053;28;20806;-67
2023/08/21 09:29:39;;;;;;;8.27;3.20;;;;;;;;;;5078084;28;20753;-67
2023/08/21 09:32:06;;;;;;;7.65;3.22;;;;;;;;;;5086857;28;20415;-67
2023/08/21 09:34:36;;;;;;;6.85;2.70;;;;;;;;;;5100551;28;20400;-65
2023/08/21 09:37:06;;;;;;;6.60;2.70;;;;;;;;;;5096284;28;20415;-67
2023/08/21 09:39:34;;;;;;;5.80;3.10;;;;;;;;;;5083811;28;20434;-65
2023/08/21 09:42:01;;;;;;;4.40;2.78;;;;;;;;;;5084359;28;20416;-64
2023/08/21 09:44:30;;;;;;;9.00;3.03;;;;;;;;;;5075624;28;20885;-64
2023/08/21 09:46:57;;;;;;;9.35;3.28;;;;;;;;;;5082394;28;20775;-64
2023/08/21 09:49:24;;;;;;;10.70;3.47;;;;;;;;;;5084035;28;21053;-65
2023/08/21 09:51:51;;;;;;;9.33;4.03;;;;;;;;;;5149640;22;20983;-67
2023/08/21 09:54:18;;;;;;;5.40;3.13;;;;;;;;;;5065170;28;20412;-66
2023/08/21 09:56:47;;;;;;;7.95;3.63;;;;;;;;;;5067419;28;20409;-66
2023/08/21 09:59:14;;;;;;;4.80;3.08;;;;;;;;;;5065778;28;20828;-67
2023/08/21 10:01:43;;;;;;;7.38;3.95;;;;;;;;;;5078885;22;20836;-66
2023/08/21 10:04:11;;;;;;;7.90;3.60;;;;;;;;;;5122850;27;20399;-68
2023/08/21 10:06:39;;;;;;;7.80;3.70;;;;;;;;;;5117622;27;20409;-66
2023/08/21 10:09:07;;;;;;;8.25;3.30;;;;;;;;;;5115727;27;20818;-66
2023/08/21 10:11:34;;;;;;;8.73;3.15;;;;;;;;;;5118059;27;20782;-66
2023/08/21 10:14:01;;;;;;;9.07;3.85;;;;;;;;;;5113762;27;20465;-66
2023/08/21 10:16:28;;;;;;;5.63;3.30;;;;;;;;;;5121715;27;20816;-66
2023/08/21 10:18:57;;;;;;;5.57;2.97;;;;;;;;;;5118817;27;20414;-66
2023/08/21 10:26:40;;;;;;;7.15;3.60;;;;;;;;;;4101600;22;20510;-69
2023/08/21 10:29:07;;;;;;;8.95;3.60;;;;;;;;;;5090566;28;20501;-68
2023/08/21 10:31:35;;;;;;;7.25;3.28;;;;;;;;;;5081887;28;20403;-67
2023/08/21 10:34:04;;;;;;;6.75;3.30;;;;;;;;;;5089435;28;20493;-66
2023/08/21 10:36:50;;;;;;;7.83;3.20;;;;;;;;;;5081355;28;20438;-65
2023/08/21 10:39:18;;;;;;;8.85;3.70;;;;;;;;;;5088066;28;20791;-68
2023/08/21 10:41:54;;;;;;;8.70;3.97;;;;;;;;;;5083493;28;20425;-64
2023/08/21 10:44:35;;;;;;;7.57;3.80;;;;;;;;;;5093916;28;20938;-64
2023/08/21 10:47:16;;;;;;;7.95;3.75;;;;;;;;;;5086963;28;20398;-64
2023/08/21 10:49:45;;;;;;;8.25;4.30;;;;;;;;;;5084108;28;20422;-64
2023/08/21 10:52:12;;;;;;;8.15;3.67;;;;;;;;;;5086420;28;20406;-67
2023/08/21 10:54:46;;;;;;;5.72;3.30;;;;;;;;;;5085608;28;20414;-65
2023/08/21 10:57:13;;;;;;;7.68;3.90;;;;;;;;;;5077392;28;20411;-65
2023/08/21 10:59:40;;;;;;;8.98;4.10;;;;;;;;;;5081295;28;20838;-65
2023/08/21 11:02:07;;;;;;;7.88;4.40;;;;;;;;;;5088370;28;20426;-61
2023/08/21 11:04:41;;;;;;;11.48;4.50;;;;;;;;;;5080541;28;20465;-61
2023/08/21 11:07:10;;;;;;;8.18;4.07;;;;;;;;;;5083109;28;20445;-61
2023/08/21 11:09:37;;;;;;;11.15;4.80;;;;;;;;;;5081691;28;20408;-61
2023/08/21 11:12:06;;;;;;;9.10;3.87;;;;;;;;;;5083318;28;20400;-61
2023/08/21 11:14:34;;;;;;;8.93;4.20;;;;;;;;;;5080588;28;20445;-61
2023/08/21 11:17:01;;;;;;;8.15;3.70;;;;;;;;;;5085173;28;20467;-61
2023/08/21 11:19:28;;;;;;;11.27;4.30;;;;;;;;;;5080386;28;20420;-61
2023/08/21 11:21:55;;;;;;;10.10;4.32;;;;;;;;;;5077583;28;20425;-61
2023/08/21 11:24:24;;;;;;;9.55;4.20;;;;;;;;;;5084446;28;20410;-61
2023/08/21 11:26:51;;;;;;;9.55;4.20;;;;;;;;;;5094943;28;20408;-61
2023/08/21 11:29:19;;;;;;;8.20;4.20;;;;;;;;;;5081130;28;20415;-61
2023/08/21 11:31:47;;;;;;;7.27;4.03;;;;;;;;;;5086106;28;20406;-65
2023/08/21 11:34:19;;;;;;;8.27;4.55;;;;;;;;;;5080324;28;20485;-64
2023/08/21 11:36:46;;;;;;;7.77;4.47;;;;;;;;;;5086278;28;20415;-65
2023/08/21 11:39:13;;;;;;;5.25;3.47;;;;;;;;;;5084779;28;20402;-63
2023/08/21 11:41:55;;;;;;;8.00;3.40;;;;;;;;;;5084990;28;20432;-65
2023/08/21 11:44:22;;;;;;;6.13;3.67;;;;;;;;;;5082815;28;20410;-67
2023/08/21 11:46:53;;;;;;;5.80;3.45;;;;;;;;;;5084815;28;20423;-65
2023/08/21 11:49:22;;;;;;;8.57;4.18;;;;;;;;;;5080947;28;20485;-60
2023/08/21 11:51:49;;;;;;;5.82;3.55;;;;;;;;;;5082141;28;20407;-66
2023/08/21 11:54:19;;;;;;;6.43;3.33;;;;;;;;;;5084613;28;20410;-65
2023/08/21 11:56:48;;;;;;;6.60;3.03;;;;;;;;;;5088071;28;20412;-62
2023/08/21 11:59:24;;;;;;;8.57;3.28;;;;;;;;;;5082646;28;20410;-64
2023/08/21 12:01:52;;;;;;;7.32;3.10;;;;;;;;;;5084294;28;20460;-63
2023/08/21 12:04:19;;;;;;;6.10;3.10;;;;;;;;;;5086417;28;20807;-65
2023/08/21 12:06:46;;;;;;;6.78;2.90;;;;;;;;;;5084205;28;20770;-65
2023/08/21 12:09:13;;;;;;;5.50;2.88;;;;;;;;;;5080852;28;20469;-65
2023/08/21 12:11:40;;;;;;;8.23;2.70;;;;;;;;;;5079328;28;20426;-63
2023/08/21 12:14:07;;;;;;;6.20;2.53;;;;;;;;;;5078265;28;20411;-62
2023/08/21 12:16:35;;;;;;;6.88;2.72;;;;;;;;;;5078685;28;20808;-61
2023/08/21 12:19:03;;;;;;;6.97;3.05;;;;;;;;;;5083210;28;20411;-60
2023/08/21 12:21:30;;;;;;;5.88;2.47;;;;;;;;;;5078873;28;20420;-60
2023/08/21 12:23:57;;;;;;;6.27;2.60;;;;;;;;;;5080319;28;20470;-59
2023/08/21 12:26:24;;;;;;;9.15;3.13;;;;;;;;;;5088311;28;20469;-60
2023/08/21 12:28:52;;;;;;;4.78;2.60;;;;;;;;;;5090582;28;20418;-60
2023/08/21 12:31:19;;;;;;;6.90;2.90;;;;;;;;;;5082081;28;20788;-60
2023/08/21 12:33:47;;;;;;;7.05;2.65;;;;;;;;;;5085202;28;20412;-59
2023/08/21 12:36:14;;;;;;;6.78;2.85;;;;;;;;;;5077238;28;20467;-60
2023/08/21 12:38:41;;;;;;;6.03;2.88;;;;;;;;;;5081237;28;20408;-60
2023/08/21 12:41:08;;;;;;;5.75;2.90;;;;;;;;;;5082450;28;20426;-60
2023/08/21 12:43:35;;;;;;;6.10;3.10;;;;;;;;;;5083770;28;20470;-60
2023/08/21 12:46:02;;;;;;;4.85;3.13;;;;;;;;;;5085707;28;20756;-60
2023/08/21 12:48:29;;;;;;;7.63;3.03;;;;;;;;;;5083134;28;20471;-62
2023/08/21 12:50:57;;;;;;;6.47;3.47;;;;;;;;;;5082987;28;20443;-62
2023/08/21 12:53:24;;;;;;;7.75;3.35;;;;;;;;;;5082554;28;20776;-62
2023/08/21 12:55:51;;;;;;;6.97;3.40;;;;;;;;;;5089727;28;20410;-61
2023/08/21 12:58:18;;;;;;;7.82;3.47;;;;;;;;;;5090542;28;20467;-61
2023/08/21 13:00:45;;;;;;;5.47;3.17;;;;;;;;;;5085201;28;20501;-61
2023/08/21 13:03:12;;;;;;;7.97;3.53;;;;;;;;;;5091221;28;20409;-61
2023/08/21 13:05:39;;;;;;;6.43;3.20;;;;;;;;;;5084188;28;20407;-61
2023/08/21 13:08:08;;;;;;;6.60;3.50;;;;;;;;;;5090805;28;20483;-60
2023/08/21 13:10:35;;;;;;;7.88;3.75;;;;;;;;;;5096575;28;20404;-64
2023/08/21 13:13:02;;;;;;;8.25;3.33;;;;;;;;;;5108649;28;20405;-63
2023/08/21 13:15:29;;;;;;;5.75;2.90;;;;;;;;;;5102360;28;20475;-61
2023/08/21 13:17:56;;;;;;;6.88;3.13;;;;;;;;;;5092488;28;20937;-61
2023/08/21 13:20:23;;;;;;;8.10;3.30;;;;;;;;;;5088159;28;20422;-60
2023/08/21 13:22:51;;;;;;;8.77;3.10;;;;;;;;;;5089237;28;20446;-61
2023/08/21 13:25:21;;;;;;;6.65;3.28;;;;;;;;;;5095295;28;20487;-60
2023/08/21 13:27:48;;;;;;;6.70;3.30;;;;;;;;;;5093649;28;20407;-60
2023/08/21 13:30:15;;;;;;;8.50;3.67;;;;;;;;;;5086941;28;20421;-60
2023/08/21 13:32:42;;;;;;;7.40;3.40;;;;;;;;;;5088592;28;20480;-60
2023/08/21 13:35:10;;;;;;;5.32;3.20;;;;;;;;;;5086639;28;20413;-60
2023/08/21 13:37:37;;;;;;;5.80;3.20;;;;;;;;;;5087713;28;20416;-60
2023/08/21 13:40:10;;;;;;;7.20;3.30;;;;;;;;;;5085860;28;20471;-61
2023/08/21 13:42:40;;;;;;;7.38;3.45;;;;;;;;;;5086482;28;20502;-65
2023/08/21 13:45:08;;;;;;;8.25;3.00;;;;;;;;;;5084783;28;20437;-65
2023/08/21 13:47:35;;;;;;;6.13;2.90;;;;;;;;;;5085486;28;20491;-64
2023/08/21 13:50:02;;;;;;;7.82;3.35;;;;;;;;;;5087463;28;20914;-65
2023/08/21 13:52:29;;;;;;;9.10;3.50;;;;;;;;;;5087415;28;20413;-64
2023/08/21 13:54:56;;;;;;;6.32;2.72;;;;;;;;;;5094121;28;20502;-65
2023/08/21 13:57:23;;;;;;;7.00;3.03;;;;;;;;;;5088935;28;20471;-64
2023/08/21 13:59:51;;;;;;;7.30;3.13;;;;;;;;;;5075534;28;20421;-64
2023/08/21 14:02:19;;;;;;;7.20;2.80;;;;;;;;;;5080439;28;20421;-60
2023/08/21 14:04:47;;;;;;;6.55;2.88;;;;;;;;;;5081501;28;20422;-60
2023/08/21 14:07:14;;;;;;;5.27;2.43;;;;;;;;;;5086600;28;20487;-61
2023/08/21 14:09:41;;;;;;;5.43;2.30;;;;;;;;;;5083623;28;20459;-60
2023/08/21 14:12:08;;;;;;;6.60;2.60;;;;;;;;;;5085886;28;20957;-60
2023/08/21 14:14:37;;;;;;;5.97;2.28;;;;;;;;;;5082531;28;20405;-61
2023/08/21 14:17:05;;;;;;;5.83;2.23;;;;;;;;;;5086358;28;20421;-61
2023/08/21 14:19:32;;;;;;;4.10;2.42;;;;;;;;;;5089508;28;20409;-63
2023/08/21 14:22:00;;;;;;;4.82;2.15;;;;;;;;;;5083846;28;20425;-62
2023/08/21 14:24:28;;;;;;;6.45;2.53;;;;;;;;;;5080420;28;21072;-61
2023/08/21 14:26:55;;;;;;;6.00;2.15;;;;;;;;;;5086116;28;20503;-62
2023/08/21 14:29:22;;;;;;;5.28;2.20;;;;;;;;;;5086252;28;20879;-65
2023/08/21 14:31:49;;;;;;;5.25;2.00;;;;;;;;;;5083846;28;20465;-65
2023/08/21 14:34:17;;;;;;;5.93;2.30;;;;;;;;;;5089459;28;20462;-65
2023/08/21 14:36:44;;;;;;;5.50;2.30;;;;;;;;;;5082500;28;20411;-66
2023/08/21 14:39:11;;;;;;;5.28;2.40;;;;;;;;;;5089476;28;20418;-64
2023/08/21 14:41:38;;;;;;;5.95;2.38;;;;;;;;;;5082052;28;20589;-64
2023/08/21 14:44:06;;;;;;;6.33;2.17;;;;;;;;;;5088882;28;20402;-64
2023/08/21 14:46:33;;;;;;;7.10;2.10;;;;;;;;;;5081923;28;20404;-64
2023/08/21 14:49:01;;;;;;;7.13;2.20;;;;;;;;;;5081391;28;20449;-65